createdAt,value
2017-09-26T00:00:28.540Z,77.40
2017-09-26T00:02:54.755Z,76.80
2017-09-26T00:05:21.416Z,76.90
2017-09-26T00:07:47.555Z,77.30
2017-09-26T00:10:14.552Z,78.00
2017-09-26T00:12:40.744Z,77.50
2017-09-26T00:15:07.334Z,78.00
2017-09-26T00:17:33.555Z,77.80
2017-09-26T00:20:00.280Z,77.50
2017-09-26T00:22:26.527Z,77.50
2017-09-26T00:24:52.704Z,77.80
2017-09-26T00:27:18.932Z,77.70
2017-09-26T00:29:47.492Z,77.90
2017-09-26T00:32:13.729Z,77.20
2017-09-26T00:34:40.744Z,77.50
2017-09-26T00:37:06.973Z,76.80
2017-09-26T00:39:33.259Z,77.40
2017-09-26T00:41:59.538Z,78.00
2017-09-26T00:44:25.751Z,78.10
2017-09-26T00:46:51.983Z,78.30
2017-09-26T00:49:18.703Z,78.10
2017-09-26T00:51:44.979Z,78.10
2017-09-26T00:54:11.198Z,78.00
2017-09-26T00:56:37.424Z,77.80
2017-09-26T00:59:03.680Z,77.60
2017-09-26T01:01:32.587Z,78.10
2017-09-26T01:04:14.439Z,78.30
2017-09-26T01:06:43.644Z,78.10
2017-09-26T01:09:09.864Z,78.00
2017-09-26T01:11:37.353Z,78.50
2017-09-26T01:14:04.737Z,78.50
2017-09-26T01:16:31.013Z,77.60
2017-09-26T01:18:57.955Z,77.60
2017-09-26T01:21:25.923Z,77.70
2017-09-26T01:23:52.255Z,77.30
2017-09-26T01:26:18.475Z,77.00
2017-09-26T01:28:44.754Z,77.10
2017-09-26T01:31:11.683Z,78.30
2017-09-26T01:33:37.962Z,78.10
2017-09-26T01:36:04.855Z,78.30
2017-09-26T01:38:31.113Z,78.30
2017-09-26T01:41:10.396Z,79.10
2017-09-26T01:43:36.580Z,78.20
2017-09-26T01:46:03.601Z,78.10
2017-09-26T01:48:30.589Z,78.50
2017-09-26T01:50:56.827Z,78.00
2017-09-26T01:53:23.502Z,77.80
2017-09-26T01:55:49.743Z,78.20
2017-09-26T01:58:17.838Z,78.30
2017-09-26T02:00:44.819Z,78.30
2017-09-26T02:03:11.004Z,77.60
2017-09-26T02:05:38.317Z,78.00
2017-09-26T02:08:04.557Z,77.30
2017-09-26T02:10:45.712Z,77.40
2017-09-26T02:13:12.227Z,77.50
2017-09-26T02:15:38.411Z,77.90
2017-09-26T02:18:05.059Z,78.30
2017-09-26T02:20:32.024Z,79.00
2017-09-26T02:22:58.940Z,79.00
2017-09-26T02:25:25.117Z,78.60
2017-09-26T02:27:51.369Z,78.30
2017-09-26T02:30:18.314Z,78.30
2017-09-26T02:32:45.508Z,78.60
2017-09-26T02:35:12.473Z,78.70
2017-09-26T02:37:40.609Z,78.40
2017-09-26T02:40:09.106Z,77.80
2017-09-26T02:42:36.063Z,78.00
2017-09-26T02:45:03.044Z,78.10
2017-09-26T02:47:29.242Z,77.70
2017-09-26T02:49:56.192Z,78.20
2017-09-26T02:52:23.095Z,78.50
2017-09-26T02:54:49.291Z,77.70
2017-09-26T02:57:15.536Z,78.10
2017-09-26T02:59:41.774Z,78.50
2017-09-26T03:02:08.711Z,78.50
2017-09-26T03:04:35.181Z,77.90
2017-09-26T03:07:01.374Z,78.20
2017-09-26T03:09:27.577Z,78.70
2017-09-26T03:11:53.778Z,78.80
2017-09-26T03:14:20.762Z,80.30
2017-09-26T03:16:46.953Z,79.00
2017-09-26T03:19:13.893Z,80.20
2017-09-26T03:21:40.102Z,79.80
2017-09-26T03:24:06.311Z,79.30
2017-09-26T03:26:32.544Z,79.10
2017-09-26T03:28:58.834Z,79.20
2017-09-26T03:31:25.805Z,80.40
2017-09-26T03:33:51.999Z,80.60
2017-09-26T03:36:18.640Z,80.40
2017-09-26T03:38:45.631Z,81.10
2017-09-26T03:41:11.862Z,80.60
2017-09-26T03:43:38.062Z,80.40
2017-09-26T03:46:04.286Z,80.00
2017-09-26T03:48:30.498Z,80.00
2017-09-26T03:50:57.414Z,80.20
2017-09-26T03:53:24.618Z,80.10
2017-09-26T03:55:50.756Z,79.10
2017-09-26T03:58:17.346Z,78.80
2017-09-26T04:00:43.574Z,79.10
2017-09-26T04:03:09.853Z,79.10
2017-09-26T04:05:36.137Z,79.10
2017-09-26T04:08:02.334Z,79.10
2017-09-26T04:10:28.573Z,79.70
2017-09-26T04:12:54.764Z,80.10
2017-09-26T04:15:21.044Z,80.60
2017-09-26T04:17:47.307Z,80.90
2017-09-26T04:20:13.558Z,80.50
2017-09-26T04:22:39.813Z,80.60
2017-09-26T04:25:06.093Z,80.40
2017-09-26T04:27:32.322Z,80.40
2017-09-26T04:29:58.549Z,80.80
2017-09-26T04:32:25.513Z,81.50
2017-09-26T04:34:52.537Z,80.90
2017-09-26T04:37:20.254Z,81.10
2017-09-26T04:39:46.495Z,81.10
2017-09-26T04:42:12.784Z,81.10
2017-09-26T04:44:39.023Z,81.30
2017-09-26T04:47:05.241Z,81.30
2017-09-26T04:49:31.477Z,81.50
2017-09-26T04:51:57.821Z,81.60
2017-09-26T04:54:24.408Z,81.70
2017-09-26T04:56:52.149Z,82.50
2017-09-26T04:59:19.105Z,83.10
2017-09-26T05:01:45.363Z,82.00
2017-09-26T05:04:12.317Z,81.40
2017-09-26T05:06:39.274Z,81.50
2017-09-26T05:09:05.514Z,81.10
2017-09-26T05:11:31.710Z,80.90
2017-09-26T05:13:58.617Z,81.40
2017-09-26T05:16:25.123Z,81.40
2017-09-26T05:18:51.402Z,81.70
2017-09-26T05:21:18.721Z,81.20
2017-09-26T05:23:44.932Z,81.40
2017-09-26T05:26:11.117Z,81.50
2017-09-26T05:28:37.283Z,81.00
2017-09-26T05:31:03.460Z,81.10
2017-09-26T05:33:29.995Z,80.70
2017-09-26T05:35:56.170Z,80.90
2017-09-26T05:38:22.405Z,80.60
2017-09-26T05:40:48.583Z,80.20
2017-09-26T05:43:14.775Z,79.60
2017-09-26T05:45:40.967Z,79.10
2017-09-26T05:48:08.653Z,78.60
2017-09-26T05:50:35.847Z,78.60
2017-09-26T05:53:02.064Z,79.20
2017-09-26T05:55:28.653Z,78.60
2017-09-26T05:57:54.831Z,78.20
2017-09-26T06:00:21.061Z,77.90
2017-09-26T06:02:47.271Z,77.70
2017-09-26T06:05:13.480Z,78.20
2017-09-26T06:07:39.686Z,78.00
2017-09-26T06:10:06.652Z,77.30
2017-09-26T06:12:32.911Z,76.80
2017-09-26T06:14:59.107Z,76.70
2017-09-26T06:17:25.322Z,76.50
2017-09-26T06:19:52.284Z,77.70
2017-09-26T06:22:18.507Z,77.60
2017-09-26T06:24:45.482Z,77.10
2017-09-26T06:27:11.664Z,75.50
2017-09-26T06:29:38.633Z,75.60
2017-09-26T06:32:04.873Z,75.60
2017-09-26T06:34:31.070Z,75.80
2017-09-26T06:36:58.024Z,76.20
2017-09-26T06:39:24.952Z,76.00
2017-09-26T06:41:51.902Z,75.80
2017-09-26T06:44:18.145Z,74.90
2017-09-26T06:46:45.124Z,75.00
2017-09-26T06:49:11.344Z,73.90
2017-09-26T06:51:37.572Z,74.10
2017-09-26T06:54:03.793Z,73.60
2017-09-26T06:56:30.081Z,74.10
2017-09-26T06:58:57.040Z,75.20
2017-09-26T07:01:23.991Z,75.10
2017-09-26T07:03:50.941Z,74.40
2017-09-26T07:06:17.878Z,74.60
2017-09-26T07:08:45.592Z,73.90
2017-09-26T07:11:11.786Z,74.20
2017-09-26T07:13:38.392Z,74.00
2017-09-26T07:16:04.582Z,74.10
2017-09-26T07:18:30.843Z,73.80
2017-09-26T07:20:56.993Z,73.40
2017-09-26T07:23:23.980Z,73.70
2017-09-26T07:25:50.190Z,73.30
2017-09-26T07:28:17.094Z,73.90
2017-09-26T07:30:43.274Z,73.70
2017-09-26T07:33:09.503Z,73.10
2017-09-26T07:35:35.677Z,72.90
2017-09-26T07:38:01.858Z,72.80
2017-09-26T07:40:29.504Z,73.10
2017-09-26T07:42:56.448Z,74.70
2017-09-26T07:45:23.407Z,74.30
2017-09-26T07:47:49.628Z,74.10
2017-09-26T07:50:16.621Z,74.30
2017-09-26T07:52:44.496Z,74.10
2017-09-26T07:55:10.719Z,74.10
2017-09-26T07:57:36.950Z,74.10
2017-09-26T08:00:03.294Z,73.60
2017-09-26T08:02:30.138Z,73.60
2017-09-26T08:04:59.225Z,74.00
2017-09-26T08:07:26.768Z,73.10
2017-09-26T08:09:54.259Z,73.20
2017-09-26T08:12:20.454Z,72.80
2017-09-26T08:14:46.630Z,72.80
2017-09-26T08:17:12.855Z,72.60
2017-09-26T08:19:39.070Z,72.30
2017-09-26T08:22:05.266Z,72.40
2017-09-26T08:24:31.491Z,71.50
2017-09-26T08:26:57.680Z,71.50
2017-09-26T08:29:24.605Z,72.50
2017-09-26T08:31:51.555Z,71.70
2017-09-26T08:34:17.733Z,71.20
2017-09-26T08:36:43.930Z,71.00
2017-09-26T08:39:10.905Z,70.80
2017-09-26T08:41:37.085Z,70.50
2017-09-26T08:44:03.654Z,69.80
2017-09-26T08:46:30.600Z,70.30
2017-09-26T08:48:56.757Z,69.30
2017-09-26T08:51:23.016Z,69.10
2017-09-26T08:53:49.210Z,69.20
2017-09-26T08:56:15.370Z,68.50
2017-09-26T08:58:41.526Z,68.90
2017-09-26T09:01:08.474Z,68.20
2017-09-26T09:03:35.443Z,67.50
2017-09-26T09:06:01.615Z,67.60
2017-09-26T09:08:27.793Z,67.90
2017-09-26T09:10:53.983Z,65.80
2017-09-26T09:13:20.192Z,65.50
2017-09-26T09:15:46.395Z,64.00
2017-09-26T09:18:12.611Z,62.00
2017-09-26T09:20:38.801Z,61.00
2017-09-26T09:23:04.970Z,60.50
2017-09-26T09:25:31.146Z,61.50
2017-09-26T09:27:57.322Z,61.20
2017-09-26T09:30:23.501Z,61.20
2017-09-26T09:32:49.727Z,58.60
2017-09-26T09:35:15.923Z,58.90
2017-09-26T09:37:42.092Z,59.70
2017-09-26T09:40:08.342Z,58.40
2017-09-26T09:42:35.295Z,56.50
2017-09-26T09:45:02.202Z,55.50
2017-09-26T09:47:28.387Z,54.60
2017-09-26T09:49:54.538Z,54.40
2017-09-26T09:52:20.733Z,53.40
2017-09-26T09:54:46.910Z,52.00
2017-09-26T09:57:13.096Z,52.40
2017-09-26T09:59:39.393Z,51.80
2017-09-26T10:02:06.423Z,51.50
2017-09-26T10:04:32.590Z,51.70
2017-09-26T10:06:59.510Z,51.80
2017-09-26T10:09:25.870Z,50.20
2017-09-26T10:11:52.071Z,50.70
2017-09-26T10:14:18.281Z,51.00
2017-09-26T10:16:44.469Z,51.00
2017-09-26T10:19:10.662Z,51.10
2017-09-26T10:21:37.593Z,50.70
2017-09-26T10:24:05.590Z,50.30
2017-09-26T10:26:31.788Z,50.00
2017-09-26T10:28:58.001Z,49.80
2017-09-26T10:31:24.174Z,49.30
2017-09-26T10:33:51.116Z,49.40
2017-09-26T10:36:18.114Z,49.60
2017-09-26T10:38:45.262Z,49.20
2017-09-26T10:41:11.528Z,48.50
2017-09-26T10:43:37.763Z,47.50
2017-09-26T10:46:04.725Z,48.20
2017-09-26T10:48:30.947Z,47.70
2017-09-26T10:50:57.992Z,48.90
2017-09-26T10:53:24.947Z,49.20
2017-09-26T10:55:51.869Z,48.80
2017-09-26T10:58:18.060Z,49.00
2017-09-26T11:00:44.280Z,49.20
2017-09-26T11:03:10.559Z,49.80
2017-09-26T11:05:36.867Z,50.50
2017-09-26T11:08:04.140Z,51.10
2017-09-26T11:10:30.664Z,51.90
2017-09-26T11:12:56.902Z,52.50
2017-09-26T11:15:23.171Z,53.40
2017-09-26T11:17:49.406Z,54.20
2017-09-26T11:20:15.737Z,53.50
2017-09-26T11:22:42.204Z,54.30
2017-09-26T11:25:08.520Z,53.90
2017-09-26T11:27:34.900Z,54.20
2017-09-26T11:30:01.987Z,54.50
2017-09-26T11:32:28.216Z,54.00
2017-09-26T11:34:54.469Z,53.90
2017-09-26T11:37:20.704Z,54.30
2017-09-26T11:39:46.925Z,53.30
2017-09-26T11:42:13.182Z,51.50
2017-09-26T11:44:39.506Z,52.20
2017-09-26T11:47:05.779Z,51.80
2017-09-26T11:49:32.829Z,50.20
2017-09-26T11:51:59.876Z,49.30
2017-09-26T11:54:26.987Z,49.10
2017-09-26T11:56:53.251Z,49.70
2017-09-26T11:59:20.304Z,49.90
2017-09-26T12:01:47.412Z,50.00
2017-09-26T12:04:13.693Z,50.00
2017-09-26T12:06:39.966Z,51.00
2017-09-26T12:09:06.198Z,49.40
2017-09-26T12:11:33.218Z,49.40
2017-09-26T12:14:07.902Z,49.90
2017-09-26T12:16:35.839Z,51.30
2017-09-26T12:19:02.112Z,51.80
2017-09-26T12:21:28.549Z,51.70
2017-09-26T12:23:55.500Z,52.20
2017-09-26T12:26:22.481Z,52.20
2017-09-26T12:28:48.731Z,53.00
2017-09-26T12:31:15.009Z,53.20
2017-09-26T12:33:41.223Z,53.80
2017-09-26T12:36:08.356Z,55.20
2017-09-26T12:38:35.027Z,55.20
2017-09-26T12:41:02.106Z,56.70
2017-09-26T12:43:28.337Z,56.60
2017-09-26T12:45:54.568Z,57.00
2017-09-26T12:48:20.775Z,57.90
2017-09-26T12:50:47.030Z,57.80
2017-09-26T12:53:13.212Z,57.70
2017-09-26T12:55:40.412Z,58.70
2017-09-26T12:58:06.649Z,58.90
2017-09-26T13:00:32.903Z,58.60
2017-09-26T13:02:59.170Z,58.70
2017-09-26T13:05:25.415Z,58.90
2017-09-26T13:07:51.632Z,58.70
2017-09-26T13:10:17.842Z,58.60
2017-09-26T13:12:44.878Z,58.60
2017-09-26T13:15:11.803Z,58.70
2017-09-26T13:17:38.001Z,57.60
2017-09-26T13:20:05.482Z,56.70
2017-09-26T13:22:46.662Z,56.20
2017-09-26T13:25:13.298Z,56.10
2017-09-26T13:27:39.528Z,56.10
2017-09-26T13:30:05.796Z,56.20
2017-09-26T13:32:32.793Z,56.30
2017-09-26T13:34:59.095Z,56.30
2017-09-26T13:37:26.431Z,55.40
2017-09-26T13:40:07.995Z,55.70
2017-09-26T13:42:34.662Z,55.90
2017-09-26T13:45:01.720Z,56.90
2017-09-26T13:47:27.986Z,56.50
2017-09-26T13:49:54.251Z,56.90
2017-09-26T13:52:21.258Z,57.00
2017-09-26T13:54:47.608Z,56.10
2017-09-26T13:57:14.831Z,55.50
2017-09-26T13:59:41.523Z,55.20
2017-09-26T14:02:08.671Z,55.20
2017-09-26T14:04:35.763Z,55.10
2017-09-26T14:07:02.108Z,55.00
2017-09-26T14:09:28.313Z,54.70
2017-09-26T14:11:54.552Z,55.90
2017-09-26T14:14:20.738Z,56.60
2017-09-26T14:16:47.077Z,57.30
2017-09-26T14:19:14.595Z,57.30
2017-09-26T14:21:40.824Z,56.90
2017-09-26T14:24:07.293Z,56.50
2017-09-26T14:26:34.392Z,56.90
2017-09-26T14:29:00.884Z,56.50
2017-09-26T14:31:27.863Z,57.60
2017-09-26T14:33:54.182Z,55.40
2017-09-26T14:36:20.440Z,55.60
2017-09-26T14:38:46.742Z,55.60
2017-09-26T14:41:13.018Z,54.90
2017-09-26T14:43:40.315Z,54.60
2017-09-26T14:46:07.374Z,55.00
2017-09-26T14:48:33.955Z,55.20
2017-09-26T14:51:00.314Z,55.70
2017-09-26T14:53:27.874Z,56.50
2017-09-26T14:55:54.200Z,57.10
2017-09-26T14:58:20.455Z,57.20
2017-09-26T15:00:47.515Z,58.00
2017-09-26T15:03:13.765Z,57.60
2017-09-26T15:05:40.020Z,57.50
2017-09-26T15:08:06.335Z,57.80
2017-09-26T15:10:32.615Z,57.70
2017-09-26T15:12:59.712Z,58.20
2017-09-26T15:15:25.963Z,57.90
2017-09-26T15:17:52.612Z,58.10
2017-09-26T15:20:18.954Z,58.00
2017-09-26T15:22:46.396Z,58.40
2017-09-26T15:25:12.720Z,58.40
2017-09-26T15:27:39.000Z,58.40
2017-09-26T15:30:05.246Z,58.60
2017-09-26T15:32:31.489Z,58.80
2017-09-26T15:34:57.946Z,59.40
2017-09-26T15:37:24.155Z,58.90
2017-09-26T15:39:50.517Z,59.50
2017-09-26T15:42:16.786Z,59.20
2017-09-26T15:44:43.848Z,59.50
2017-09-26T15:47:10.107Z,60.00
2017-09-26T15:49:36.407Z,59.60
2017-09-26T15:52:02.604Z,59.60
2017-09-26T15:54:29.591Z,59.90
2017-09-26T15:56:56.525Z,59.80
2017-09-26T15:59:22.752Z,60.30
2017-09-26T16:01:49.117Z,60.50
2017-09-26T16:04:15.344Z,60.60
2017-09-26T16:06:42.485Z,61.00
2017-09-26T16:09:08.740Z,61.10
2017-09-26T16:11:34.920Z,61.10
2017-09-26T16:14:01.189Z,61.00
2017-09-26T16:16:27.775Z,61.10
2017-09-26T16:18:54.782Z,62.30
2017-09-26T16:21:26.845Z,62.10
2017-09-26T16:23:53.398Z,62.10
2017-09-26T16:26:19.681Z,62.20
2017-09-26T16:28:46.053Z,61.70
2017-09-26T16:31:12.383Z,62.70
2017-09-26T16:33:38.617Z,62.70
2017-09-26T16:36:04.876Z,63.20
2017-09-26T16:38:31.087Z,63.50
2017-09-26T16:40:57.360Z,63.60
2017-09-26T16:43:24.034Z,63.30
2017-09-26T16:45:50.313Z,64.20
2017-09-26T16:48:16.573Z,64.40
2017-09-26T16:50:42.870Z,64.50
2017-09-26T16:53:10.890Z,65.50
2017-09-26T16:55:37.170Z,65.60
2017-09-26T16:58:04.943Z,66.60
2017-09-26T17:00:31.987Z,67.50
2017-09-26T17:02:58.281Z,67.70
2017-09-26T17:05:24.611Z,67.70
2017-09-26T17:07:51.267Z,67.30
2017-09-26T17:10:18.328Z,68.20
2017-09-26T17:12:45.438Z,68.70
2017-09-26T17:15:12.087Z,68.30
2017-09-26T17:17:39.808Z,68.50
2017-09-26T17:20:06.084Z,68.70
2017-09-26T17:22:32.322Z,69.10
2017-09-26T17:24:58.596Z,68.50
2017-09-26T17:27:24.884Z,68.80
2017-09-26T17:29:51.949Z,69.30
2017-09-26T17:32:18.260Z,69.40
2017-09-26T17:34:44.617Z,69.10
2017-09-26T17:37:10.885Z,68.50
2017-09-26T17:39:37.171Z,68.90
2017-09-26T17:42:04.164Z,69.90
2017-09-26T17:44:30.544Z,69.60
2017-09-26T17:47:01.791Z,70.50
2017-09-26T17:49:28.909Z,70.20
2017-09-26T17:51:55.292Z,70.30
2017-09-26T17:54:21.981Z,70.30
2017-09-26T17:56:48.256Z,70.50
2017-09-26T17:59:14.583Z,70.50
2017-09-26T18:01:41.560Z,70.00
2017-09-26T18:04:08.315Z,70.30
2017-09-26T18:06:34.635Z,70.50
2017-09-26T18:09:01.806Z,71.30
2017-09-26T18:11:28.129Z,71.90
2017-09-26T18:13:54.422Z,71.80
2017-09-26T18:16:20.664Z,71.80
2017-09-26T18:18:47.016Z,71.50
2017-09-26T18:21:13.987Z,71.70
2017-09-26T18:23:40.215Z,71.80
2017-09-26T18:26:06.586Z,71.70
2017-09-26T18:28:33.633Z,72.30
2017-09-26T18:31:00.748Z,72.50
2017-09-26T18:33:27.023Z,72.40
2017-09-26T18:35:54.382Z,72.30
2017-09-26T18:38:20.715Z,72.40
2017-09-26T18:40:52.116Z,72.50
2017-09-26T18:43:19.130Z,72.30
2017-09-26T18:45:45.790Z,72.20
2017-09-26T18:48:12.387Z,71.70
2017-09-26T18:50:39.519Z,71.70
2017-09-26T18:53:06.888Z,72.10
2017-09-26T18:55:40.114Z,71.60
2017-09-26T18:58:08.377Z,72.00
2017-09-26T19:00:34.683Z,72.10
2017-09-26T19:03:02.115Z,72.60
2017-09-26T19:05:29.368Z,72.40
2017-09-26T19:07:55.637Z,72.50
2017-09-26T19:10:21.878Z,72.00
2017-09-26T19:12:49.217Z,73.40
2017-09-26T19:15:15.994Z,72.90
2017-09-26T19:17:42.238Z,72.90
2017-09-26T19:20:08.513Z,72.50
2017-09-26T19:22:34.815Z,72.40
2017-09-26T19:25:01.181Z,72.30
2017-09-26T19:27:27.483Z,71.80
2017-09-26T19:29:53.878Z,72.00
2017-09-26T19:32:20.154Z,71.50
2017-09-26T19:34:52.313Z,72.50
2017-09-26T19:37:18.596Z,71.60
2017-09-26T19:39:46.106Z,72.30
2017-09-26T19:42:13.163Z,71.60
2017-09-26T19:44:40.243Z,72.00
2017-09-26T19:47:07.069Z,72.00
2017-09-26T19:49:34.058Z,72.70
2017-09-26T19:52:01.038Z,71.50
2017-09-26T19:54:27.389Z,72.10
2017-09-26T19:56:54.107Z,71.60
2017-09-26T19:59:20.471Z,71.70
2017-09-26T20:01:47.636Z,72.40
2017-09-26T20:04:28.868Z,72.20
2017-09-26T20:06:55.678Z,72.40
2017-09-26T20:09:21.920Z,72.00
2017-09-26T20:11:48.658Z,72.10
2017-09-26T20:14:15.365Z,72.10
2017-09-26T20:16:41.799Z,72.30
2017-09-26T20:19:08.237Z,72.10
2017-09-26T20:21:34.691Z,72.10
2017-09-26T20:24:00.971Z,73.10
2017-09-26T20:26:28.067Z,73.40
2017-09-26T20:28:54.414Z,73.30
2017-09-26T20:31:21.316Z,73.10
2017-09-26T20:33:48.107Z,73.40
2017-09-26T20:36:14.632Z,73.50
2017-09-26T20:38:40.969Z,73.70
2017-09-26T20:41:07.563Z,73.80
2017-09-26T20:43:33.885Z,74.10
2017-09-26T20:46:00.892Z,74.20
2017-09-26T20:48:27.252Z,74.40
2017-09-26T20:50:54.263Z,74.80
2017-09-26T20:53:20.584Z,74.30
2017-09-26T20:55:47.226Z,74.70
2017-09-26T20:58:13.565Z,74.50
2017-09-26T21:00:39.815Z,74.80
2017-09-26T21:03:06.260Z,74.60
2017-09-26T21:05:33.370Z,75.50
2017-09-26T21:07:59.672Z,74.60
2017-09-26T21:12:54.246Z,74.90
2017-09-26T21:15:21.144Z,74.80
2017-09-26T22:27:43.796Z,76.80
2017-09-26T22:30:10.856Z,76.50
2017-09-26T22:32:37.205Z,76.30
2017-09-26T22:35:03.500Z,76.60
2017-09-26T22:37:30.183Z,76.60
2017-09-26T22:48:53.119Z,77.70
2017-09-26T22:51:20.658Z,77.10
2017-09-26T22:53:47.809Z,77.40
2017-09-26T22:56:14.918Z,77.50
2017-09-26T22:58:41.368Z,77.00
2017-09-26T23:01:07.640Z,77.00
2017-09-26T23:03:34.084Z,76.90
2017-09-26T23:06:00.394Z,76.90
2017-09-26T23:08:27.576Z,76.60
2017-09-26T23:10:54.584Z,76.80
2017-09-26T23:13:21.993Z,77.60
2017-09-26T23:15:48.313Z,77.80
2017-09-26T23:18:14.610Z,78.30
2017-09-26T23:20:41.740Z,78.60
2017-09-26T23:23:08.050Z,78.10
2017-09-26T23:25:34.391Z,78.50
2017-09-26T23:28:00.675Z,78.40
2017-09-26T23:30:28.108Z,78.20
2017-09-26T23:32:55.318Z,77.50
2017-09-26T23:35:21.640Z,77.80
2017-09-26T23:37:47.974Z,78.00
2017-09-26T23:40:14.286Z,77.40
2017-09-26T23:42:41.722Z,77.70
2017-09-26T23:45:08.797Z,78.30
2017-09-26T23:47:36.051Z,77.80
2017-09-26T23:50:03.524Z,78.10
2017-09-26T23:52:29.814Z,78.30
2017-09-26T23:54:56.867Z,78.60
2017-09-26T23:57:24.768Z,78.30
2017-09-26T23:59:51.028Z,78.40
